sensor_id;sensor_type;location;lat;lon;timestamp;P1;durP1;ratioP1;P2;durP2;ratioP2
25559;SDS011;13450;49.374;8.584;2023-04-24T00:00:55;1.10;;;0.50;;
25559;SDS011;13450;49.374;8.584;2023-04-24T00:03:26;1.58;;;0.70;;
25559;SDS011;13450;49.374;8.584;2023-04-24T00:05:52;0.98;;;0.40;;
25559;SDS011;13450;49.374;8.584;2023-04-24T00:08:18;2.42;;;0.65;;
25559;SDS011;13450;49.374;8.584;2023-04-24T00:10:43;1.95;;;0.63;;
25559;SDS011;13450;49.374;8.584;2023-04-24T00:13:09;1.20;;;0.60;;
25559;SDS011;13450;49.374;8.584;2023-04-24T00:15:34;3.13;;;0.60;;
25559;SDS011;13450;49.374;8.584;2023-04-24T00:18:05;1.77;;;0.63;;
25559;SDS011;13450;49.374;8.584;2023-04-24T00:20:30;1.48;;;0.60;;
25559;SDS011;13450;49.374;8.584;2023-04-24T00:22:57;1.33;;;0.57;;
25559;SDS011;13450;49.374;8.584;2023-04-24T00:25:22;1.35;;;0.63;;
25559;SDS011;13450;49.374;8.584;2023-04-24T00:27:48;1.98;;;0.70;;
25559;SDS011;13450;49.374;8.584;2023-04-24T00:30:15;3.40;;;0.60;;
25559;SDS011;13450;49.374;8.584;2023-04-24T00:32:40;4.82;;;0.82;;
25559;SDS011;13450;49.374;8.584;2023-04-24T00:35:06;1.23;;;0.60;;
25559;SDS011;13450;49.374;8.584;2023-04-24T00:37:31;2.72;;;0.77;;
25559;SDS011;13450;49.374;8.584;2023-04-24T00:39:57;1.00;;;0.55;;
25559;SDS011;13450;49.374;8.584;2023-04-24T00:42:22;1.45;;;0.60;;
25559;SDS011;13450;49.374;8.584;2023-04-24T00:44:48;2.22;;;0.50;;
25559;SDS011;13450;49.374;8.584;2023-04-24T00:47:13;1.23;;;0.65;;
25559;SDS011;13450;49.374;8.584;2023-04-24T00:49:39;1.65;;;0.77;;
25559;SDS011;13450;49.374;8.584;2023-04-24T00:52:07;1.52;;;0.60;;
25559;SDS011;13450;49.374;8.584;2023-04-24T00:54:33;3.17;;;0.80;;
25559;SDS011;13450;49.374;8.584;2023-04-24T00:56:59;1.13;;;0.55;;
25559;SDS011;13450;49.374;8.584;2023-04-24T00:59:26;2.17;;;0.73;;
25559;SDS011;13450;49.374;8.584;2023-04-24T01:01:51;1.90;;;0.60;;
25559;SDS011;13450;49.374;8.584;2023-04-24T01:04:17;1.80;;;0.60;;
25559;SDS011;13450;49.374;8.584;2023-04-24T01:06:43;2.13;;;0.60;;
25559;SDS011;13450;49.374;8.584;2023-04-24T01:09:10;0.82;;;0.40;;
25559;SDS011;13450;49.374;8.584;2023-04-24T01:11:36;2.03;;;0.70;;
25559;SDS011;13450;49.374;8.584;2023-04-24T01:14:02;1.75;;;0.60;;
25559;SDS011;13450;49.374;8.584;2023-04-24T01:16:27;1.67;;;0.70;;
25559;SDS011;13450;49.374;8.584;2023-04-24T01:18:55;1.40;;;0.70;;
25559;SDS011;13450;49.374;8.584;2023-04-24T01:21:21;2.45;;;0.98;;
25559;SDS011;13450;49.374;8.584;2023-04-24T01:23:46;2.03;;;0.80;;
25559;SDS011;13450;49.374;8.584;2023-04-24T01:26:13;1.60;;;0.60;;
25559;SDS011;13450;49.374;8.584;2023-04-24T01:31:09;2.22;;;0.80;;
25559;SDS011;13450;49.374;8.584;2023-04-24T01:33:34;1.42;;;0.50;;
25559;SDS011;13450;49.374;8.584;2023-04-24T01:36:00;2.58;;;0.70;;
25559;SDS011;13450;49.374;8.584;2023-04-24T01:38:26;1.85;;;0.77;;
25559;SDS011;13450;49.374;8.584;2023-04-24T01:40:51;0.50;;;0.40;;
25559;SDS011;13450;49.374;8.584;2023-04-24T01:43:17;1.48;;;0.60;;
25559;SDS011;13450;49.374;8.584;2023-04-24T01:45:43;1.50;;;0.70;;
25559;SDS011;13450;49.374;8.584;2023-04-24T01:48:09;1.27;;;0.50;;
25559;SDS011;13450;49.374;8.584;2023-04-24T01:50:34;2.75;;;0.88;;
25559;SDS011;13450;49.374;8.584;2023-04-24T01:53:00;1.65;;;0.60;;
25559;SDS011;13450;49.374;8.584;2023-04-24T01:55:25;3.15;;;0.70;;
25559;SDS011;13450;49.374;8.584;2023-04-24T01:57:52;1.10;;;0.50;;
25559;SDS011;13450;49.374;8.584;2023-04-24T02:00:18;1.27;;;0.52;;
25559;SDS011;13450;49.374;8.584;2023-04-24T02:02:44;1.85;;;0.60;;
25559;SDS011;13450;49.374;8.584;2023-04-24T02:05:12;2.35;;;0.47;;
25559;SDS011;13450;49.374;8.584;2023-04-24T02:07:37;1.48;;;0.60;;
25559;SDS011;13450;49.374;8.584;2023-04-24T02:10:03;1.75;;;0.60;;
25559;SDS011;13450;49.374;8.584;2023-04-24T02:12:31;1.88;;;0.60;;
25559;SDS011;13450;49.374;8.584;2023-04-24T02:14:57;0.75;;;0.55;;
25559;SDS011;13450;49.374;8.584;2023-04-24T02:17:22;1.23;;;0.50;;
25559;SDS011;13450;49.374;8.584;2023-04-24T02:19:47;1.48;;;0.70;;
25559;SDS011;13450;49.374;8.584;2023-04-24T02:22:13;3.97;;;0.70;;
25559;SDS011;13450;49.374;8.584;2023-04-24T02:24:38;2.55;;;0.63;;
25559;SDS011;13450;49.374;8.584;2023-04-24T02:27:03;1.83;;;0.57;;
25559;SDS011;13450;49.374;8.584;2023-04-24T02:29:29;2.45;;;0.70;;
25559;SDS011;13450;49.374;8.584;2023-04-24T02:31:55;2.65;;;0.50;;
25559;SDS011;13450;49.374;8.584;2023-04-24T02:34:20;2.03;;;0.80;;
25559;SDS011;13450;49.374;8.584;2023-04-24T02:36:46;1.58;;;0.55;;
25559;SDS011;13450;49.374;8.584;2023-04-24T02:39:11;1.60;;;0.70;;
25559;SDS011;13450;49.374;8.584;2023-04-24T02:41:38;3.20;;;0.70;;
25559;SDS011;13450;49.374;8.584;2023-04-24T02:44:03;2.13;;;0.70;;
25559;SDS011;13450;49.374;8.584;2023-04-24T02:46:28;2.72;;;0.90;;
25559;SDS011;13450;49.374;8.584;2023-04-24T02:48:54;1.17;;;0.55;;
25559;SDS011;13450;49.374;8.584;2023-04-24T02:51:19;2.55;;;0.70;;
25559;SDS011;13450;49.374;8.584;2023-04-24T02:53:44;1.10;;;0.50;;
25559;SDS011;13450;49.374;8.584;2023-04-24T02:56:09;1.85;;;0.77;;
25559;SDS011;13450;49.374;8.584;2023-04-24T02:58:37;2.65;;;0.80;;
25559;SDS011;13450;49.374;8.584;2023-04-24T03:01:02;1.88;;;0.60;;
25559;SDS011;13450;49.374;8.584;2023-04-24T03:03:27;1.52;;;0.80;;
25559;SDS011;13450;49.374;8.584;2023-04-24T03:05:53;3.13;;;0.85;;
25559;SDS011;13450;49.374;8.584;2023-04-24T03:08:18;2.25;;;1.00;;
25559;SDS011;13450;49.374;8.584;2023-04-24T03:10:43;4.22;;;0.95;;
25559;SDS011;13450;49.374;8.584;2023-04-24T03:13:09;2.50;;;0.90;;
25559;SDS011;13450;49.374;8.584;2023-04-24T03:15:34;1.83;;;0.80;;
25559;SDS011;13450;49.374;8.584;2023-04-24T03:17:59;2.45;;;0.80;;
25559;SDS011;13450;49.374;8.584;2023-04-24T03:20:25;2.92;;;1.00;;
25559;SDS011;13450;49.374;8.584;2023-04-24T03:22:51;2.20;;;0.80;;
25559;SDS011;13450;49.374;8.584;2023-04-24T03:25:18;2.17;;;0.95;;
25559;SDS011;13450;49.374;8.584;2023-04-24T03:27:46;3.08;;;0.90;;
25559;SDS011;13450;49.374;8.584;2023-04-24T03:30:11;2.78;;;1.05;;
25559;SDS011;13450;49.374;8.584;2023-04-24T03:32:41;2.10;;;0.93;;
25559;SDS011;13450;49.374;8.584;2023-04-24T03:35:07;3.03;;;1.00;;
25559;SDS011;13450;49.374;8.584;2023-04-24T03:37:35;3.58;;;1.10;;
25559;SDS011;13450;49.374;8.584;2023-04-24T03:40:01;5.25;;;1.13;;
25559;SDS011;13450;49.374;8.584;2023-04-24T03:42:26;2.35;;;1.05;;
25559;SDS011;13450;49.374;8.584;2023-04-24T03:44:52;1.80;;;0.80;;
25559;SDS011;13450;49.374;8.584;2023-04-24T03:47:17;2.17;;;0.90;;
25559;SDS011;13450;49.374;8.584;2023-04-24T03:49:42;2.47;;;1.05;;
25559;SDS011;13450;49.374;8.584;2023-04-24T03:52:07;2.22;;;0.90;;
25559;SDS011;13450;49.374;8.584;2023-04-24T03:54:35;3.97;;;0.98;;
25559;SDS011;13450;49.374;8.584;2023-04-24T03:57:00;3.08;;;1.17;;
25559;SDS011;13450;49.374;8.584;2023-04-24T03:59:26;2.45;;;1.10;;
25559;SDS011;13450;49.374;8.584;2023-04-24T04:01:51;3.80;;;1.50;;
25559;SDS011;13450;49.374;8.584;2023-04-24T04:04:17;3.13;;;1.20;;
25559;SDS011;13450;49.374;8.584;2023-04-24T04:06:42;3.00;;;1.20;;
25559;SDS011;13450;49.374;8.584;2023-04-24T04:09:08;2.22;;;1.08;;
25559;SDS011;13450;49.374;8.584;2023-04-24T04:11:34;2.50;;;1.10;;
25559;SDS011;13450;49.374;8.584;2023-04-24T04:14:00;2.17;;;1.00;;
25559;SDS011;13450;49.374;8.584;2023-04-24T04:16:25;2.30;;;1.10;;
25559;SDS011;13450;49.374;8.584;2023-04-24T04:18:51;2.80;;;1.25;;
25559;SDS011;13450;49.374;8.584;2023-04-24T04:21:16;1.65;;;0.80;;
25559;SDS011;13450;49.374;8.584;2023-04-24T04:23:41;4.07;;;1.10;;
25559;SDS011;13450;49.374;8.584;2023-04-24T04:26:06;3.35;;;1.20;;
25559;SDS011;13450;49.374;8.584;2023-04-24T04:28:33;4.25;;;1.20;;
25559;SDS011;13450;49.374;8.584;2023-04-24T04:30:59;2.72;;;1.10;;
25559;SDS011;13450;49.374;8.584;2023-04-24T04:33:25;2.45;;;1.15;;
25559;SDS011;13450;49.374;8.584;2023-04-24T04:35:51;2.33;;;1.13;;
25559;SDS011;13450;49.374;8.584;2023-04-24T04:38:17;3.25;;;1.48;;
25559;SDS011;13450;49.374;8.584;2023-04-24T04:40:43;3.45;;;1.13;;
25559;SDS011;13450;49.374;8.584;2023-04-24T04:43:12;2.22;;;1.05;;
25559;SDS011;13450;49.374;8.584;2023-04-24T04:45:45;3.50;;;1.23;;
25559;SDS011;13450;49.374;8.584;2023-04-24T04:48:10;2.92;;;1.27;;
25559;SDS011;13450;49.374;8.584;2023-04-24T04:50:38;2.28;;;1.00;;
25559;SDS011;13450;49.374;8.584;2023-04-24T04:53:06;2.55;;;1.23;;
25559;SDS011;13450;49.374;8.584;2023-04-24T04:55:31;2.83;;;1.17;;
25559;SDS011;13450;49.374;8.584;2023-04-24T04:57:57;2.72;;;1.30;;
25559;SDS011;13450;49.374;8.584;2023-04-24T05:00:22;4.30;;;1.88;;
25559;SDS011;13450;49.374;8.584;2023-04-24T05:02:50;2.70;;;1.33;;
25559;SDS011;13450;49.374;8.584;2023-04-24T05:05:16;4.63;;;1.88;;
25559;SDS011;13450;49.374;8.584;2023-04-24T05:07:42;4.82;;;1.98;;
25559;SDS011;13450;49.374;8.584;2023-04-24T05:10:08;3.38;;;1.45;;
25559;SDS011;13450;49.374;8.584;2023-04-24T05:12:33;3.08;;;1.58;;
25559;SDS011;13450;49.374;8.584;2023-04-24T05:14:59;4.20;;;1.67;;
25559;SDS011;13450;49.374;8.584;2023-04-24T05:17:24;2.85;;;1.45;;
25559;SDS011;13450;49.374;8.584;2023-04-24T05:19:49;2.55;;;1.30;;
25559;SDS011;13450;49.374;8.584;2023-04-24T05:22:16;3.22;;;1.55;;
25559;SDS011;13450;49.374;8.584;2023-04-24T05:24:43;4.15;;;1.42;;
25559;SDS011;13450;49.374;8.584;2023-04-24T05:27:08;3.80;;;1.63;;
25559;SDS011;13450;49.374;8.584;2023-04-24T05:29:33;4.50;;;1.60;;
25559;SDS011;13450;49.374;8.584;2023-04-24T05:31:59;3.97;;;1.85;;
25559;SDS011;13450;49.374;8.584;2023-04-24T05:34:27;3.15;;;1.55;;
25559;SDS011;13450;49.374;8.584;2023-04-24T05:36:52;2.70;;;1.38;;
25559;SDS011;13450;49.374;8.584;2023-04-24T05:39:18;4.00;;;1.70;;
25559;SDS011;13450;49.374;8.584;2023-04-24T05:41:44;3.45;;;1.73;;
25559;SDS011;13450;49.374;8.584;2023-04-24T05:44:10;3.25;;;1.55;;
25559;SDS011;13450;49.374;8.584;2023-04-24T05:46:35;3.95;;;1.60;;
25559;SDS011;13450;49.374;8.584;2023-04-24T05:49:01;5.97;;;2.88;;
25559;SDS011;13450;49.374;8.584;2023-04-24T05:51:27;4.03;;;1.88;;
25559;SDS011;13450;49.374;8.584;2023-04-24T05:53:52;3.50;;;1.60;;
25559;SDS011;13450;49.374;8.584;2023-04-24T05:56:17;4.43;;;1.80;;
25559;SDS011;13450;49.374;8.584;2023-04-24T05:58:43;3.67;;;1.48;;
25559;SDS011;13450;49.374;8.584;2023-04-24T06:01:09;4.50;;;2.10;;
25559;SDS011;13450;49.374;8.584;2023-04-24T06:03:34;4.40;;;1.98;;
25559;SDS011;13450;49.374;8.584;2023-04-24T06:06:00;6.85;;;2.25;;
25559;SDS011;13450;49.374;8.584;2023-04-24T06:08:25;4.85;;;1.95;;
25559;SDS011;13450;49.374;8.584;2023-04-24T06:10:53;4.25;;;1.92;;
25559;SDS011;13450;49.374;8.584;2023-04-24T06:13:18;3.70;;;1.95;;
25559;SDS011;13450;49.374;8.584;2023-04-24T06:15:44;6.72;;;2.08;;
25559;SDS011;13450;49.374;8.584;2023-04-24T06:18:09;3.30;;;1.50;;
25559;SDS011;13450;49.374;8.584;2023-04-24T06:20:37;5.30;;;1.80;;
25559;SDS011;13450;49.374;8.584;2023-04-24T06:23:03;5.20;;;1.75;;
25559;SDS011;13450;49.374;8.584;2023-04-24T06:25:28;3.97;;;1.95;;
25559;SDS011;13450;49.374;8.584;2023-04-24T06:27:55;4.68;;;1.83;;
25559;SDS011;13450;49.374;8.584;2023-04-24T06:30:20;3.67;;;1.67;;
25559;SDS011;13450;49.374;8.584;2023-04-24T06:32:48;3.38;;;1.50;;
25559;SDS011;13450;49.374;8.584;2023-04-24T06:35:13;5.85;;;1.85;;
25559;SDS011;13450;49.374;8.584;2023-04-24T06:37:39;3.60;;;1.77;;
25559;SDS011;13450;49.374;8.584;2023-04-24T06:40:05;3.17;;;1.50;;
25559;SDS011;13450;49.374;8.584;2023-04-24T06:42:31;3.22;;;1.45;;
25559;SDS011;13450;49.374;8.584;2023-04-24T06:44:56;3.47;;;1.58;;
25559;SDS011;13450;49.374;8.584;2023-04-24T06:47:24;4.75;;;1.60;;
25559;SDS011;13450;49.374;8.584;2023-04-24T06:49:52;3.10;;;1.50;;
25559;SDS011;13450;49.374;8.584;2023-04-24T06:52:18;3.15;;;1.42;;
25559;SDS011;13450;49.374;8.584;2023-04-24T06:54:45;3.72;;;1.40;;
25559;SDS011;13450;49.374;8.584;2023-04-24T06:57:11;4.13;;;1.73;;
25559;SDS011;13450;49.374;8.584;2023-04-24T06:59:36;5.28;;;1.60;;
25559;SDS011;13450;49.374;8.584;2023-04-24T07:02:02;3.70;;;1.63;;
25559;SDS011;13450;49.374;8.584;2023-04-24T07:04:28;3.15;;;1.50;;
25559;SDS011;13450;49.374;8.584;2023-04-24T07:06:55;2.20;;;0.90;;
25559;SDS011;13450;49.374;8.584;2023-04-24T07:09:23;1.70;;;0.80;;
25559;SDS011;13450;49.374;8.584;2023-04-24T07:11:53;1.45;;;0.88;;
25559;SDS011;13450;49.374;8.584;2023-04-24T07:14:19;1.52;;;0.80;;
25559;SDS011;13450;49.374;8.584;2023-04-24T07:16:45;1.70;;;0.80;;
25559;SDS011;13450;49.374;8.584;2023-04-24T07:19:11;1.88;;;0.98;;
25559;SDS011;13450;49.374;8.584;2023-04-24T07:21:38;2.60;;;1.00;;
25559;SDS011;13450;49.374;8.584;2023-04-24T07:24:03;2.50;;;1.05;;
25559;SDS011;13450;49.374;8.584;2023-04-24T07:26:29;4.35;;;1.10;;
25559;SDS011;13450;49.374;8.584;2023-04-24T07:28:55;2.35;;;1.10;;
25559;SDS011;13450;49.374;8.584;2023-04-24T07:31:21;3.47;;;1.20;;
25559;SDS011;13450;49.374;8.584;2023-04-24T07:33:46;2.50;;;1.02;;
25559;SDS011;13450;49.374;8.584;2023-04-24T07:36:12;2.60;;;1.20;;
25559;SDS011;13450;49.374;8.584;2023-04-24T07:38:43;2.35;;;1.10;;
25559;SDS011;13450;49.374;8.584;2023-04-24T07:41:09;2.13;;;1.00;;
25559;SDS011;13450;49.374;8.584;2023-04-24T07:43:35;2.80;;;1.10;;
25559;SDS011;13450;49.374;8.584;2023-04-24T07:46:00;2.10;;;1.08;;
25559;SDS011;13450;49.374;8.584;2023-04-24T07:48:26;2.00;;;1.00;;
25559;SDS011;13450;49.374;8.584;2023-04-24T07:50:51;5.35;;;1.05;;
25559;SDS011;13450;49.374;8.584;2023-04-24T07:53:19;2.53;;;1.20;;
25559;SDS011;13450;49.374;8.584;2023-04-24T07:55:45;2.72;;;1.17;;
25559;SDS011;13450;49.374;8.584;2023-04-24T07:58:11;3.13;;;1.20;;
25559;SDS011;13450;49.374;8.584;2023-04-24T08:00:36;2.72;;;1.20;;
25559;SDS011;13450;49.374;8.584;2023-04-24T08:03:01;3.97;;;1.40;;
25559;SDS011;13450;49.374;8.584;2023-04-24T08:05:27;3.47;;;1.30;;
25559;SDS011;13450;49.374;8.584;2023-04-24T08:07:53;3.40;;;1.40;;
25559;SDS011;13450;49.374;8.584;2023-04-24T08:10:19;2.00;;;1.10;;
25559;SDS011;13450;49.374;8.584;2023-04-24T08:12:45;2.42;;;1.10;;
25559;SDS011;13450;49.374;8.584;2023-04-24T08:15:13;2.80;;;1.35;;
25559;SDS011;13450;49.374;8.584;2023-04-24T08:17:38;2.55;;;1.10;;
25559;SDS011;13450;49.374;8.584;2023-04-24T08:20:06;2.75;;;1.20;;
25559;SDS011;13450;49.374;8.584;2023-04-24T08:22:38;2.85;;;1.13;;
25559;SDS011;13450;49.374;8.584;2023-04-24T08:25:04;1.95;;;1.00;;
25559;SDS011;13450;49.374;8.584;2023-04-24T08:27:30;4.63;;;1.25;;
25559;SDS011;13450;49.374;8.584;2023-04-24T08:29:56;2.60;;;1.10;;
25559;SDS011;13450;49.374;8.584;2023-04-24T08:32:22;2.08;;;1.02;;
25559;SDS011;13450;49.374;8.584;2023-04-24T08:34:47;3.80;;;1.20;;
25559;SDS011;13450;49.374;8.584;2023-04-24T08:37:17;2.58;;;1.10;;
25559;SDS011;13450;49.374;8.584;2023-04-24T08:39:42;4.80;;;1.10;;
25559;SDS011;13450;49.374;8.584;2023-04-24T08:42:08;3.80;;;1.08;;
25559;SDS011;13450;49.374;8.584;2023-04-24T08:44:34;5.00;;;1.20;;
25559;SDS011;13450;49.374;8.584;2023-04-24T08:47:04;2.30;;;1.00;;
25559;SDS011;13450;49.374;8.584;2023-04-24T08:49:30;2.78;;;1.35;;
25559;SDS011;13450;49.374;8.584;2023-04-24T08:51:56;2.88;;;1.20;;
25559;SDS011;13450;49.374;8.584;2023-04-24T08:54:21;2.45;;;1.20;;
25559;SDS011;13450;49.374;8.584;2023-04-24T08:56:47;3.13;;;1.02;;
25559;SDS011;13450;49.374;8.584;2023-04-24T08:59:14;1.98;;;1.00;;
25559;SDS011;13450;49.374;8.584;2023-04-24T09:01:40;4.05;;;1.10;;
25559;SDS011;13450;49.374;8.584;2023-04-24T09:04:06;2.05;;;1.02;;
25559;SDS011;13450;49.374;8.584;2023-04-24T09:06:34;6.10;;;1.33;;
25559;SDS011;13450;49.374;8.584;2023-04-24T09:09:03;3.00;;;1.20;;
25559;SDS011;13450;49.374;8.584;2023-04-24T09:11:29;3.03;;;1.20;;
25559;SDS011;13450;49.374;8.584;2023-04-24T09:13:56;2.95;;;1.25;;
25559;SDS011;13450;49.374;8.584;2023-04-24T09:16:21;2.88;;;1.50;;
25559;SDS011;13450;49.374;8.584;2023-04-24T09:18:49;2.50;;;1.00;;
25559;SDS011;13450;49.374;8.584;2023-04-24T09:21:14;2.30;;;1.00;;
25559;SDS011;13450;49.374;8.584;2023-04-24T09:23:40;4.03;;;1.15;;
25559;SDS011;13450;49.374;8.584;2023-04-24T09:26:05;3.25;;;1.00;;
25559;SDS011;13450;49.374;8.584;2023-04-24T09:28:38;2.30;;;1.00;;
25559;SDS011;13450;49.374;8.584;2023-04-24T09:31:14;4.00;;;1.00;;
25559;SDS011;13450;49.374;8.584;2023-04-24T09:33:57;2.47;;;1.10;;
25559;SDS011;13450;49.374;8.584;2023-04-24T09:36:30;3.33;;;0.90;;
25559;SDS011;13450;49.374;8.584;2023-04-24T09:39:03;2.25;;;0.95;;
25559;SDS011;13450;49.374;8.584;2023-04-24T09:41:33;2.42;;;1.05;;
25559;SDS011;13450;49.374;8.584;2023-04-24T09:44:20;2.10;;;1.10;;
25559;SDS011;13450;49.374;8.584;2023-04-24T09:46:51;3.35;;;1.10;;
25559;SDS011;13450;49.374;8.584;2023-04-24T09:49:25;3.13;;;1.17;;
25559;SDS011;13450;49.374;8.584;2023-04-24T09:52:05;3.78;;;1.33;;
25559;SDS011;13450;49.374;8.584;2023-04-24T09:57:02;3.13;;;1.50;;
25559;SDS011;13450;49.374;8.584;2023-04-24T09:59:30;3.20;;;1.60;;
25559;SDS011;13450;49.374;8.584;2023-04-24T10:01:56;3.70;;;1.60;;
25559;SDS011;13450;49.374;8.584;2023-04-24T10:04:24;3.53;;;1.60;;
25559;SDS011;13450;49.374;8.584;2023-04-24T10:06:52;4.88;;;1.77;;
25559;SDS011;13450;49.374;8.584;2023-04-24T10:09:19;3.08;;;1.40;;
25559;SDS011;13450;49.374;8.584;2023-04-24T10:11:47;2.97;;;1.33;;
25559;SDS011;13450;49.374;8.584;2023-04-24T10:14:15;3.05;;;1.42;;
25559;SDS011;13450;49.374;8.584;2023-04-24T10:16:42;2.90;;;1.40;;
25559;SDS011;13450;49.374;8.584;2023-04-24T10:19:12;4.68;;;1.50;;
25559;SDS011;13450;49.374;8.584;2023-04-24T10:21:38;2.70;;;1.40;;
25559;SDS011;13450;49.374;8.584;2023-04-24T10:24:07;3.25;;;1.27;;
25559;SDS011;13450;49.374;8.584;2023-04-24T10:26:34;4.35;;;1.40;;
25559;SDS011;13450;49.374;8.584;2023-04-24T10:29:00;3.13;;;1.40;;
25559;SDS011;13450;49.374;8.584;2023-04-24T10:31:26;4.35;;;1.20;;
25559;SDS011;13450;49.374;8.584;2023-04-24T10:33:55;2.67;;;1.02;;
25559;SDS011;13450;49.374;8.584;2023-04-24T10:36:23;2.65;;;1.08;;
25559;SDS011;13450;49.374;8.584;2023-04-24T10:38:51;2.03;;;1.00;;
25559;SDS011;13450;49.374;8.584;2023-04-24T10:41:17;3.03;;;1.10;;
25559;SDS011;13450;49.374;8.584;2023-04-24T10:43:48;3.30;;;1.00;;
25559;SDS011;13450;49.374;8.584;2023-04-24T10:46:29;2.88;;;1.05;;
25559;SDS011;13450;49.374;8.584;2023-04-24T10:48:55;2.15;;;1.10;;
25559;SDS011;13450;49.374;8.584;2023-04-24T10:51:42;3.53;;;1.40;;
25559;SDS011;13450;49.374;8.584;2023-04-24T10:54:56;2.35;;;1.13;;
25559;SDS011;13450;49.374;8.584;2023-04-24T10:59:52;3.42;;;1.60;;
25559;SDS011;13450;49.374;8.584;2023-04-24T11:02:38;2.55;;;1.23;;
25559;SDS011;13450;49.374;8.584;2023-04-24T11:05:05;5.95;;;1.77;;
25559;SDS011;13450;49.374;8.584;2023-04-24T11:10:46;3.42;;;1.65;;
25559;SDS011;13450;49.374;8.584;2023-04-24T11:13:23;4.88;;;1.80;;
25559;SDS011;13450;49.374;8.584;2023-04-24T11:18:39;2.80;;;1.40;;
25559;SDS011;13450;49.374;8.584;2023-04-24T11:21:13;3.03;;;1.40;;
25559;SDS011;13450;49.374;8.584;2023-04-24T11:23:41;2.40;;;1.20;;
25559;SDS011;13450;49.374;8.584;2023-04-24T11:26:14;4.43;;;1.60;;
25559;SDS011;13450;49.374;8.584;2023-04-24T11:28:47;3.13;;;1.50;;
25559;SDS011;13450;49.374;8.584;2023-04-24T11:36:47;3.67;;;1.40;;
25559;SDS011;13450;49.374;8.584;2023-04-24T11:39:13;3.50;;;1.60;;
25559;SDS011;13450;49.374;8.584;2023-04-24T11:41:39;4.28;;;1.55;;
25559;SDS011;13450;49.374;8.584;2023-04-24T11:44:06;5.30;;;1.83;;
25559;SDS011;13450;49.374;8.584;2023-04-24T11:46:33;4.18;;;1.50;;
25559;SDS011;13450;49.374;8.584;2023-04-24T11:48:58;3.45;;;1.70;;
25559;SDS011;13450;49.374;8.584;2023-04-24T11:51:25;4.43;;;1.83;;
25559;SDS011;13450;49.374;8.584;2023-04-24T11:53:52;4.38;;;1.80;;
25559;SDS011;13450;49.374;8.584;2023-04-24T11:56:24;5.65;;;1.77;;
25559;SDS011;13450;49.374;8.584;2023-04-24T11:58:51;6.05;;;2.25;;
25559;SDS011;13450;49.374;8.584;2023-04-24T12:01:18;4.78;;;2.20;;
25559;SDS011;13450;49.374;8.584;2023-04-24T12:03:47;4.43;;;1.98;;
25559;SDS011;13450;49.374;8.584;2023-04-24T12:06:13;3.38;;;1.70;;
25559;SDS011;13450;49.374;8.584;2023-04-24T12:08:39;4.60;;;1.92;;
25559;SDS011;13450;49.374;8.584;2023-04-24T12:11:10;4.17;;;1.80;;
25559;SDS011;13450;49.374;8.584;2023-04-24T12:13:35;3.33;;;1.63;;
25559;SDS011;13450;49.374;8.584;2023-04-24T12:16:03;4.00;;;1.63;;
25559;SDS011;13450;49.374;8.584;2023-04-24T12:18:30;3.92;;;1.48;;
25559;SDS011;13450;49.374;8.584;2023-04-24T12:21:01;6.53;;;2.15;;
25559;SDS011;13450;49.374;8.584;2023-04-24T12:23:42;4.30;;;1.90;;
25559;SDS011;13450;49.374;8.584;2023-04-24T12:26:08;4.63;;;1.95;;
25559;SDS011;13450;49.374;8.584;2023-04-24T12:28:37;2.90;;;1.63;;
25559;SDS011;13450;49.374;8.584;2023-04-24T12:31:03;4.90;;;1.90;;
25559;SDS011;13450;49.374;8.584;2023-04-24T12:33:32;3.25;;;1.50;;
25559;SDS011;13450;49.374;8.584;2023-04-24T12:38:26;3.92;;;1.60;;
25559;SDS011;13450;49.374;8.584;2023-04-24T12:41:02;3.30;;;1.60;;
25559;SDS011;13450;49.374;8.584;2023-04-24T12:43:29;4.15;;;1.60;;
25559;SDS011;13450;49.374;8.584;2023-04-24T12:45:55;3.70;;;1.63;;
25559;SDS011;13450;49.374;8.584;2023-04-24T12:48:20;3.00;;;1.40;;
25559;SDS011;13450;49.374;8.584;2023-04-24T12:50:47;4.07;;;1.60;;
25559;SDS011;13450;49.374;8.584;2023-04-24T12:53:12;3.47;;;1.63;;
25559;SDS011;13450;49.374;8.584;2023-04-24T12:55:38;3.20;;;1.50;;
25559;SDS011;13450;49.374;8.584;2023-04-24T12:58:03;3.53;;;1.60;;
25559;SDS011;13450;49.374;8.584;2023-04-24T13:00:28;3.78;;;1.60;;
25559;SDS011;13450;49.374;8.584;2023-04-24T13:02:54;3.70;;;1.70;;
25559;SDS011;13450;49.374;8.584;2023-04-24T13:05:22;3.45;;;1.50;;
25559;SDS011;13450;49.374;8.584;2023-04-24T13:07:47;3.05;;;1.42;;
25559;SDS011;13450;49.374;8.584;2023-04-24T13:10:15;3.42;;;1.50;;
25559;SDS011;13450;49.374;8.584;2023-04-24T13:12:40;3.63;;;1.40;;
25559;SDS011;13450;49.374;8.584;2023-04-24T13:15:06;3.30;;;1.40;;
25559;SDS011;13450;49.374;8.584;2023-04-24T13:17:34;2.70;;;1.40;;
25559;SDS011;13450;49.374;8.584;2023-04-24T13:20:01;4.35;;;1.50;;
25559;SDS011;13450;49.374;8.584;2023-04-24T13:22:27;3.53;;;1.85;;
25559;SDS011;13450;49.374;8.584;2023-04-24T13:24:53;3.30;;;1.50;;
25559;SDS011;13450;49.374;8.584;2023-04-24T13:27:18;3.85;;;1.65;;
25559;SDS011;13450;49.374;8.584;2023-04-24T13:29:43;2.90;;;1.45;;
25559;SDS011;13450;49.374;8.584;2023-04-24T13:32:09;3.40;;;1.50;;
25559;SDS011;13450;49.374;8.584;2023-04-24T13:34:37;2.88;;;1.48;;
25559;SDS011;13450;49.374;8.584;2023-04-24T13:37:02;5.20;;;1.50;;
25559;SDS011;13450;49.374;8.584;2023-04-24T13:39:29;2.53;;;1.20;;
25559;SDS011;13450;49.374;8.584;2023-04-24T13:41:54;3.33;;;1.42;;
25559;SDS011;13450;49.374;8.584;2023-04-24T13:44:22;3.10;;;1.40;;
25559;SDS011;13450;49.374;8.584;2023-04-24T13:46:49;4.35;;;1.48;;
25559;SDS011;13450;49.374;8.584;2023-04-24T13:49:17;4.33;;;1.53;;
25559;SDS011;13450;49.374;8.584;2023-04-24T13:51:42;2.90;;;1.30;;
25559;SDS011;13450;49.374;8.584;2023-04-24T13:54:08;2.72;;;1.25;;
25559;SDS011;13450;49.374;8.584;2023-04-24T13:56:34;3.50;;;1.25;;
25559;SDS011;13450;49.374;8.584;2023-04-24T13:58:59;3.70;;;1.40;;
25559;SDS011;13450;49.374;8.584;2023-04-24T14:01:25;4.32;;;1.67;;
25559;SDS011;13450;49.374;8.584;2023-04-24T14:03:54;5.70;;;1.60;;
25559;SDS011;13450;49.374;8.584;2023-04-24T14:06:20;3.55;;;1.50;;
25559;SDS011;13450;49.374;8.584;2023-04-24T14:08:46;4.07;;;1.48;;
25559;SDS011;13450;49.374;8.584;2023-04-24T14:11:15;3.42;;;1.50;;
25559;SDS011;13450;49.374;8.584;2023-04-24T14:13:44;4.13;;;1.60;;
25559;SDS011;13450;49.374;8.584;2023-04-24T14:16:10;2.78;;;1.48;;
25559;SDS011;13450;49.374;8.584;2023-04-24T14:18:36;3.85;;;1.38;;
25559;SDS011;13450;49.374;8.584;2023-04-24T14:21:01;4.82;;;1.63;;
25559;SDS011;13450;49.374;8.584;2023-04-24T14:23:27;2.72;;;1.50;;
25559;SDS011;13450;49.374;8.584;2023-04-24T14:25:53;2.90;;;1.38;;
25559;SDS011;13450;49.374;8.584;2023-04-24T14:28:21;3.97;;;1.40;;
25559;SDS011;13450;49.374;8.584;2023-04-24T14:30:46;2.75;;;1.23;;
25559;SDS011;13450;49.374;8.584;2023-04-24T14:33:12;3.97;;;1.48;;
25559;SDS011;13450;49.374;8.584;2023-04-24T14:35:38;4.00;;;1.42;;
25559;SDS011;13450;49.374;8.584;2023-04-24T14:38:04;2.90;;;1.20;;
25559;SDS011;13450;49.374;8.584;2023-04-24T14:40:30;2.90;;;1.48;;
25559;SDS011;13450;49.374;8.584;2023-04-24T14:42:56;3.97;;;1.40;;
25559;SDS011;13450;49.374;8.584;2023-04-24T14:45:22;6.63;;;1.45;;
25559;SDS011;13450;49.374;8.584;2023-04-24T14:47:48;2.28;;;1.15;;
25559;SDS011;13450;49.374;8.584;2023-04-24T14:50:13;3.33;;;1.77;;
25559;SDS011;13450;49.374;8.584;2023-04-24T14:52:39;3.17;;;1.48;;
25559;SDS011;13450;49.374;8.584;2023-04-24T14:55:05;4.20;;;1.52;;
25559;SDS011;13450;49.374;8.584;2023-04-24T14:57:31;4.65;;;1.70;;
25559;SDS011;13450;49.374;8.584;2023-04-24T14:59:57;3.72;;;1.67;;
25559;SDS011;13450;49.374;8.584;2023-04-24T15:02:22;3.17;;;1.45;;
25559;SDS011;13450;49.374;8.584;2023-04-24T15:04:48;3.88;;;1.42;;
25559;SDS011;13450;49.374;8.584;2023-04-24T15:07:13;4.32;;;1.75;;